Time;durP1;ratioP1;P1;durP2;ratioP2;P2;SDS_P1;SDS_P2;PMS_P1;PMS_P2;Temp;Humidity;BMP_temperature;BMP_pressure;BME280_temperature;BME280_humidity;BME280_pressure;Samples;Min_cycle;Max_cycle;Signal;HPM_P1;HPM_P2
2021/12/12 00:02:22;;;;;;;;;14.25;9.50;;;;;7.80;76.21;101894.88;5074945;28;45481;-79
2021/12/12 00:04:49;;;;;;;;;15.50;11.50;;;;;7.83;76.46;101915.97;5072964;27;45594;-79
2021/12/12 00:07:21;;;;;;;;;17.50;11.75;;;;;7.82;76.66;101915.94;5072902;27;45270;-79
2021/12/12 00:09:50;;;;;;;;;16.00;11.00;;;;;7.82;76.39;101908.91;5071843;28;45496;-79
2021/12/12 00:12:29;;;;;;;;;17.00;11.50;;;;;7.63;76.83;101876.50;5072257;28;45684;-78
2021/12/12 00:14:57;;;;;;;;;14.75;10.25;;;;;7.82;76.82;101908.03;5058263;28;45470;-79
2021/12/12 00:17:24;;;;;;;;;16.00;13.00;;;;;7.84;76.90;101908.94;5075574;27;46201;-79
2021/12/12 00:19:50;;;;;;;;;10.25;5.25;;;;;7.74;76.84;101892.28;5074107;28;45592;-78
2021/12/12 00:22:22;;;;;;;;;15.00;10.75;;;;;7.78;77.28;101901.03;5073287;28;45417;-78
2021/12/12 00:24:48;;;;;;;;;12.00;9.75;;;;;7.72;77.48;101889.66;5088830;27;45825;-78
2021/12/12 00:27:14;;;;;;;;;13.00;11.00;;;;;7.61;77.18;101877.38;5071513;28;46586;-78
2021/12/12 00:29:40;;;;;;;;;16.50;12.25;;;;;7.40;77.24;101836.22;5072860;28;45487;-78
2021/12/12 00:32:10;;;;;;;;;23.00;10.00;;;;;7.59;76.96;101872.16;5073695;28;45408;-79
2021/12/12 00:34:42;;;;;;;;;15.75;14.50;;;;;7.71;77.52;101887.91;5071248;28;45453;-79
2021/12/12 00:37:09;;;;;;;;;12.00;12.00;;;;;7.47;77.40;101852.00;5069846;27;47783;-79
2021/12/12 00:39:39;;;;;;;;;16.50;14.75;;;;;7.57;77.80;101871.25;5072137;28;45482;-79
2021/12/12 00:42:15;;;;;;;;;19.00;15.00;;;;;7.35;77.41;101827.44;5075499;27;45449;-79
2021/12/12 00:44:45;;;;;;;;;24.50;12.75;;;;;7.71;77.58;101887.91;5071946;28;45403;-79
2021/12/12 00:47:12;;;;;;;;;18.75;15.50;;;;;7.68;77.44;101880.00;5074177;27;45698;-79
2021/12/12 00:49:39;;;;;;;;;22.25;16.75;;;;;7.58;77.73;101869.50;5072095;28;45572;-79
2021/12/12 00:52:07;;;;;;;;;14.75;4.75;;;;;7.73;77.78;101899.31;5072726;28;45213;-80
2021/12/12 00:54:34;;;;;;;;;16.00;11.25;;;;;7.65;78.08;101876.53;5070876;28;45466;-79
2021/12/12 00:57:07;;;;;;;;;15.00;11.50;;;;;7.64;77.60;101869.47;5070442;27;46945;-79
2021/12/12 00:59:34;;;;;;;;;15.75;11.50;;;;;7.65;77.96;101880.03;5073438;28;45367;-79
2021/12/12 01:02:03;;;;;;;;;20.25;14.25;;;;;7.68;78.85;101887.91;5073401;28;45399;-79
2021/12/12 01:04:36;;;;;;;;;22.50;13.50;;;;;7.67;79.22;101887.91;5086347;27;45523;-79
2021/12/12 01:07:05;;;;;;;;;19.25;15.75;;;;;7.62;79.11;101876.53;5068610;28;46111;-79
2021/12/12 01:09:36;;;;;;;;;17.25;14.50;;;;;7.50;79.22;101866.91;5090401;27;45451;-79
2021/12/12 01:12:08;;;;;;;;;23.75;15.25;;;;;7.45;79.17;101852.88;5076501;27;45346;-80
2021/12/12 01:14:40;;;;;;;;;17.25;16.75;;;;;7.57;79.76;101873.03;5076956;27;45718;-80
2021/12/12 01:17:17;;;;;;;;;20.50;16.00;;;;;7.64;79.93;101893.19;5076978;27;46545;-79
2021/12/12 01:19:52;;;;;;;;;28.25;17.00;;;;;7.63;79.75;101881.78;5073807;28;45465;-78
2021/12/12 01:22:33;;;;;;;;;21.00;16.00;;;;;7.64;79.71;101888.78;5072998;28;45469;-79
2021/12/12 01:25:09;;;;;;;;;17.50;16.25;;;;;7.55;79.50;101874.78;5075022;28;45474;-79
2021/12/12 01:27:35;;;;;;;;;22.25;15.75;;;;;7.47;79.90;101856.34;5091035;27;47614;-79
2021/12/12 01:30:00;;;;;;;;;22.75;20.75;;;;;7.55;80.08;101873.03;5075760;28;45453;-79
2021/12/12 01:32:30;;;;;;;;;18.75;15.00;;;;;7.66;79.64;101894.06;5076731;27;45498;-79
2021/12/12 01:34:57;;;;;;;;;21.75;19.75;;;;;7.68;80.01;101892.31;5075345;28;45456;-79
2021/12/12 01:40:04;;;;;;;;;23.50;17.00;;;;;7.72;79.64;101894.91;5075827;27;45599;-79
2021/12/12 01:42:36;;;;;;;;;21.25;15.00;;;;;7.75;79.64;101894.03;5075327;28;45431;-79
2021/12/12 01:45:28;;;;;;;;;29.75;17.25;;;;;7.27;79.62;101820.44;5075096;28;45281;-79
2021/12/12 01:47:59;;;;;;;;;21.75;20.25;;;;;7.79;79.96;101908.06;5073338;28;45507;-79
2021/12/12 01:50:33;;;;;;;;;15.75;14.75;;;;;7.74;80.50;101910.72;5071757;28;45621;-80
2021/12/12 01:53:03;;;;;;;;;25.75;21.00;;;;;7.65;80.07;101909.00;5076406;28;46208;-78
2021/12/12 01:55:58;;;;;;;;;25.25;20.00;;;;;7.69;79.88;101915.13;5089283;27;45468;-79
2021/12/12 01:58:28;;;;;;;;;15.00;15.00;;;;;7.71;80.23;101918.66;5071129;28;45588;-79
2021/12/12 02:01:07;;;;;;;;;21.50;19.25;;;;;7.55;80.18;101895.84;5073335;28;46286;-79
2021/12/12 02:03:37;;;;;;;;;33.50;21.25;;;;;7.77;80.46;101928.28;5075379;27;45516;-79
2021/12/12 02:06:06;;;;;;;;;22.25;19.00;;;;;7.55;81.12;101901.13;5074887;28;45539;-79
2021/12/12 02:08:33;;;;;;;;;23.75;19.00;;;;;7.62;80.93;101897.59;5075407;27;47889;-79
2021/12/12 02:11:06;;;;;;;;;19.75;16.50;;;;;7.76;81.14;101918.63;5074462;28;46327;-79
2021/12/12 02:13:37;;;;;;;;;21.75;19.75;;;;;7.77;80.96;101934.44;5074676;28;45556;-80
2021/12/12 02:16:03;;;;;;;;;15.75;13.50;;;;;7.74;80.77;101927.41;5090550;27;45452;-79
2021/12/12 02:18:34;;;;;;;;;26.25;21.00;;;;;7.59;80.99;101890.59;5090526;27;47264;-79
2021/12/12 02:21:18;;;;;;;;;20.75;18.50;;;;;7.83;80.77;101920.38;5077151;27;45465;-78
2021/12/12 02:24:18;;;;;;;;;20.75;17.25;;;;;7.70;80.17;101896.66;5075223;27;45542;-79
2021/12/12 02:35:14;;;;;;;;;20.75;20.00;;;;;7.78;80.64;101901.03;5077027;28;45454;-79
2021/12/12 02:37:41;;;;;;;;;23.25;18.25;;;;;7.77;80.66;101896.66;5103387;27;45413;-79
2021/12/12 02:40:26;;;;;;;;;19.50;18.00;;;;;7.84;80.62;101919.47;5074606;28;46598;-79
2021/12/12 02:42:52;;;;;;;;;26.75;21.25;;;;;7.80;80.86;101913.34;5066733;28;45436;-79
2021/12/12 02:45:20;;;;;;;;;19.25;15.75;;;;;7.88;80.79;101926.47;5074813;28;45320;-79
2021/12/12 02:47:54;;;;;;;;;26.00;20.00;;;;;7.72;80.47;101894.03;5074536;27;45511;-79
2021/12/12 02:50:22;;;;;;;;;23.00;19.00;;;;;7.78;80.75;101907.19;5076360;27;46021;-78
2021/12/12 02:52:53;;;;;;;;;18.75;15.50;;;;;7.91;80.77;101923.81;5072822;28;45483;-79
2021/12/12 02:55:24;;;;;;;;;19.00;16.75;;;;;7.80;81.21;101910.72;5072555;28;45464;-79
2021/12/12 02:57:53;;;;;;;;;23.50;18.25;;;;;7.91;81.30;101919.44;5074160;28;45446;-79
2021/12/12 03:00:22;;;;;;;;;24.00;18.50;;;;;7.70;80.80;101885.25;5074251;28;46046;-79
2021/12/12 03:02:56;;;;;;;;;23.00;18.25;;;;;7.75;81.78;101909.84;5074145;28;45505;-79
2021/12/12 03:05:21;;;;;;;;;18.25;16.75;;;;;7.72;81.79;101918.63;5076140;27;45469;-79
2021/12/12 03:07:47;;;;;;;;;19.75;17.50;;;;;7.86;81.50;101920.34;5072464;28;45434;-79
2021/12/12 03:10:18;;;;;;;;;18.50;15.50;;;;;7.89;81.13;101912.44;5073297;28;45782;-78
2021/12/12 03:12:44;;;;;;;;;22.25;17.25;;;;;7.93;81.14;101911.53;5070981;28;46164;-79
2021/12/12 03:15:22;;;;;;;;;16.50;12.25;;;;;7.93;81.38;101911.53;5074160;28;45681;-79
2021/12/12 03:17:50;;;;;;;;;21.25;20.00;;;;;7.97;81.15;101929.97;5074891;28;45225;-78
2021/12/12 03:20:26;;;;;;;;;26.50;17.75;;;;;7.91;81.74;101919.44;5075329;28;45531;-79
2021/12/12 03:23:00;;;;;;;;;21.75;15.25;;;;;7.85;81.83;101902.75;5073129;28;45376;-79
2021/12/12 03:25:27;;;;;;;;;27.00;19.00;;;;;7.83;81.37;101905.41;5072077;28;45535;-79
2021/12/12 03:27:53;;;;;;;;;28.00;17.75;;;;;7.90;81.83;101922.94;5071836;27;45546;-78
2021/12/12 03:30:19;;;;;;;;;16.50;15.00;;;;;7.90;82.20;101924.72;5073366;28;45417;-78
2021/12/12 03:32:44;;;;;;;;;19.50;16.75;;;;;7.73;82.46;101890.50;5072481;28;45992;-78
2021/12/12 03:35:10;;;;;;;;;27.50;19.25;;;;;7.83;82.11;101907.19;5075003;27;45326;-78
2021/12/12 03:37:37;;;;;;;;;17.50;17.00;;;;;7.79;82.01;101901.03;5073463;27;45536;-78
2021/12/12 03:40:12;;;;;;;;;22.50;20.50;;;;;7.98;81.92;101930.84;5071983;27;46479;-78
2021/12/12 03:42:38;;;;;;;;;18.25;14.75;;;;;7.91;82.54;101908.91;5072047;28;45472;-78
2021/12/12 03:45:05;;;;;;;;;16.50;16.50;;;;;8.01;82.35;101928.19;5074046;28;45399;-78
2021/12/12 03:47:42;;;;;;;;;21.00;19.50;;;;;7.85;82.03;101886.94;5075182;27;45534;-78
2021/12/12 03:50:12;;;;;;;;;18.75;17.00;;;;;8.08;81.53;101910.56;5073398;28;46507;-78
2021/12/12 03:52:38;;;;;;;;;20.00;16.75;;;;;8.13;81.60;101921.97;5072308;28;45571;-78
2021/12/12 03:55:05;;;;;;;;;16.75;15.50;;;;;8.14;81.60;101913.16;5073421;27;45600;-78
2021/12/12 03:57:31;;;;;;;;;23.00;16.75;;;;;8.12;81.45;101905.28;5073636;27;45555;-78
2021/12/12 03:59:59;;;;;;;;;16.25;14.75;;;;;8.24;81.96;101922.78;5073762;27;45318;-78
2021/12/12 04:02:26;;;;;;;;;21.00;15.00;;;;;8.32;81.40;101938.56;5075011;27;45515;-78
2021/12/12 04:04:51;;;;;;;;;19.25;15.75;;;;;8.33;81.87;101937.69;5073683;28;45477;-79
2021/12/12 04:07:22;;;;;;;;;16.50;15.25;;;;;8.32;81.72;101928.00;5073717;28;45375;-79
2021/12/12 04:09:48;;;;;;;;;20.25;17.75;;;;;8.38;81.85;101938.50;5072402;27;45446;-78
2021/12/12 04:12:17;;;;;;;;;18.25;15.75;;;;;8.35;81.74;101925.34;5073700;28;45577;-78
2021/12/12 04:14:44;;;;;;;;;19.00;15.50;;;;;8.24;81.79;101911.38;5071634;28;45861;-78
2021/12/12 04:17:13;;;;;;;;;17.75;16.00;;;;;8.28;81.77;101916.59;5075454;27;45513;-77
2021/12/12 04:19:45;;;;;;;;;19.25;16.75;;;;;8.36;81.92;101941.19;5077551;27;48292;-77
2021/12/12 04:22:11;;;;;;;;;22.00;18.25;;;;;8.36;82.24;101940.31;5072790;28;45367;-78
2021/12/12 04:24:40;;;;;;;;;29.75;20.25;;;;;8.27;82.47;101930.69;5073233;28;45543;-78
2021/12/12 04:27:06;;;;;;;;;22.50;19.75;;;;;8.39;82.12;101942.97;5072250;28;45399;-78
2021/12/12 04:29:41;;;;;;;;;28.25;16.50;;;;;8.23;82.19;101913.09;5072538;28;48740;-78
2021/12/12 04:32:16;;;;;;;;;24.25;20.50;;;;;8.30;82.21;101908.69;5074284;28;45525;-78
2021/12/12 04:34:51;;;;;;;;;22.25;19.25;;;;;8.47;82.02;101938.53;5072584;28;45570;-78
2021/12/12 04:37:18;;;;;;;;;22.75;18.75;;;;;8.45;81.63;101929.72;5073024;28;45419;-78
2021/12/12 04:39:50;;;;;;;;;28.00;17.50;;;;;8.49;82.04;101931.44;5066443;28;46454;-78
2021/12/12 04:42:27;;;;;;;;;23.50;22.25;;;;;8.45;81.69;101935.00;5076084;27;45521;-78
2021/12/12 04:44:57;;;;;;;;;32.25;17.50;;;;;8.52;82.28;101939.34;5077024;27;45402;-79
2021/12/12 04:50:44;;;;;;;;;24.00;21.75;;;;;8.52;81.91;101925.28;5076403;28;45450;-79
2021/12/12 04:53:22;;;;;;;;;28.25;21.00;;;;;8.46;82.21;101909.50;5076230;28;45487;-78
2021/12/12 04:55:55;;;;;;;;;25.50;19.50;;;;;8.55;82.13;101927.91;5075934;27;45535;-79
2021/12/12 04:58:41;;;;;;;;;24.50;23.00;;;;;8.61;82.29;101944.56;5079014;27;45518;-78
2021/12/12 05:01:13;;;;;;;;;29.25;20.00;;;;;8.64;82.07;101949.81;5075550;28;45366;-78
2021/12/12 05:04:00;;;;;;;;;20.75;17.25;;;;;8.62;82.34;101954.25;5075447;28;45279;-78
2021/12/12 05:06:39;;;;;;;;;24.75;20.25;;;;;8.66;82.22;101949.81;5074880;28;45580;-78
2021/12/12 05:09:25;;;;;;;;;25.00;20.50;;;;;8.57;82.18;101928.78;5074706;27;45378;-78
2021/12/12 05:12:14;;;;;;;;;28.25;22.00;;;;;8.68;82.73;101963.88;5075722;28;46295;-78
2021/12/12 05:14:45;;;;;;;;;22.25;20.75;;;;;8.71;82.39;101952.44;5075173;28;45630;-78
2021/12/12 05:17:27;;;;;;;;;26.00;19.50;;;;;8.69;82.31;101948.91;5076324;28;45547;-79
2021/12/12 05:19:57;;;;;;;;;26.00;20.50;;;;;8.73;82.23;101959.44;5072185;28;45575;-79
2021/12/12 05:22:34;;;;;;;;;28.75;23.50;;;;;8.64;82.16;101928.69;5072605;28;45512;-78
2021/12/12 05:25:03;;;;;;;;;25.25;20.50;;;;;8.78;82.30;101952.34;5070311;28;45521;-77
2021/12/12 05:27:33;;;;;;;;;28.50;19.25;;;;;8.61;82.32;101919.94;5064444;28;45737;-78
2021/12/12 05:30:15;;;;;;;;;16.75;12.75;;;;;8.83;82.37;101963.78;5075600;28;45422;-78
2021/12/12 05:32:41;;;;;;;;;16.25;11.00;;;;;8.77;82.66;101953.25;5075353;27;45660;-79
2021/12/12 05:35:10;;;;;;;;;30.75;21.75;;;;;8.73;82.29;101945.38;5078090;27;45510;-78
2021/12/12 05:37:37;;;;;;;;;26.00;19.50;;;;;8.64;82.14;101931.34;5091042;27;45370;-78
2021/12/12 05:40:07;;;;;;;;;23.00;19.25;;;;;8.77;82.05;101941.84;5075726;27;45406;-78
2021/12/12 05:42:33;;;;;;;;;27.75;22.25;;;;;8.89;82.10;101965.50;5074159;28;49017;-78
2021/12/12 05:44:59;;;;;;;;;25.00;23.50;;;;;8.89;82.01;101960.22;5075171;28;45263;-78
2021/12/12 05:47:25;;;;;;;;;28.75;21.00;;;;;8.80;82.01;101939.16;5077058;27;45472;-78
2021/12/12 05:49:52;;;;;;;;;32.50;22.75;;;;;8.51;82.01;101887.47;5074790;28;45481;-78
2021/12/12 05:52:21;;;;;;;;;21.50;18.00;;;;;8.91;81.95;101966.31;5074720;28;46083;-78
2021/12/12 05:54:48;;;;;;;;;36.00;26.50;;;;;8.89;81.81;101965.50;5075527;28;45434;-79
2021/12/12 05:57:19;;;;;;;;;22.50;21.50;;;;;8.92;81.99;101972.50;5071641;28;45513;-79
2021/12/12 05:59:46;;;;;;;;;31.75;21.75;;;;;8.86;82.11;101960.22;5075023;27;45449;-79
2021/12/12 06:02:12;;;;;;;;;28.75;20.75;;;;;8.89;82.29;101976.06;5075052;28;46815;-79
2021/12/12 06:04:37;;;;;;;;;23.25;17.50;;;;;8.82;82.08;101961.13;5075129;27;45543;-79
2021/12/12 06:07:06;;;;;;;;;29.50;22.75;;;;;8.81;82.28;101962.03;5073313;28;45366;-79
2021/12/12 06:09:32;;;;;;;;;27.75;21.75;;;;;8.92;82.20;101978.66;5074921;27;45509;-79
2021/12/12 06:12:00;;;;;;;;;18.00;16.50;;;;;8.94;82.34;101978.63;5074674;27;46071;-79
2021/12/12 06:14:27;;;;;;;;;31.00;21.75;;;;;8.83;82.33;101965.53;5076005;27;45490;-78
2021/12/12 06:16:54;;;;;;;;;30.75;23.50;;;;;8.77;82.45;101962.94;5074418;28;45276;-80
2021/12/12 06:19:22;;;;;;;;;25.50;17.25;;;;;8.72;82.73;101960.31;5074354;28;45354;-79
2021/12/12 06:21:54;;;;;;;;;25.00;21.50;;;;;8.81;83.21;101970.81;5072021;28;45438;-79
2021/12/12 06:24:21;;;;;;;;;27.75;21.50;;;;;8.91;83.07;101984.81;5073312;28;45566;-79
2021/12/12 06:26:46;;;;;;;;;23.25;20.25;;;;;8.86;83.03;101978.72;5073283;28;45524;-80
2021/12/12 06:29:12;;;;;;;;;25.25;20.50;;;;;8.90;83.07;101984.84;5062742;28;45390;-80
2021/12/12 06:31:42;;;;;;;;;28.25;24.00;;;;;8.85;83.03;101977.84;5074515;28;45451;-79
2021/12/12 06:34:08;;;;;;;;;24.25;21.50;;;;;8.98;82.77;102001.50;5074742;28;45497;-79
2021/12/12 06:36:34;;;;;;;;;27.00;22.25;;;;;8.92;83.38;101983.06;5086117;27;45462;-79
2021/12/12 06:39:00;;;;;;;;;22.00;20.00;;;;;8.62;83.30;101937.53;5074585;28;45325;-78
2021/12/12 06:41:27;;;;;;;;;24.50;21.00;;;;;9.01;83.33;102007.63;5076117;28;46430;-78
2021/12/12 06:43:53;;;;;;;;;26.50;22.75;;;;;8.98;83.50;102002.38;5074848;28;45383;-78
2021/12/12 06:46:20;;;;;;;;;24.00;19.25;;;;;9.07;82.84;102004.06;5074670;28;45770;-78
2021/12/12 06:48:46;;;;;;;;;23.00;19.00;;;;;9.10;83.12;102014.63;5083035;27;45356;-78
2021/12/12 06:51:12;;;;;;;;;24.00;20.75;;;;;9.04;83.31;102007.63;5072811;28;47696;-79
2021/12/12 06:53:41;;;;;;;;;25.50;18.00;;;;;8.98;83.26;101999.75;5075792;28;45465;-79
2021/12/12 06:56:08;;;;;;;;;24.00;23.00;;;;;9.14;83.28;102013.69;5074517;28;45477;-79
2021/12/12 06:58:34;;;;;;;;;25.25;22.00;;;;;9.15;83.25;102012.81;5073389;28;45669;-79
2021/12/12 07:01:05;;;;;;;;;23.00;20.00;;;;;9.05;83.56;102003.19;5073522;28;45382;-78
2021/12/12 07:03:31;;;;;;;;;28.25;18.50;;;;;8.97;83.16;101987.44;5073138;28;45399;-79
2021/12/12 07:05:57;;;;;;;;;26.25;24.25;;;;;9.17;83.35;102024.22;5072360;28;45357;-79
2021/12/12 07:08:23;;;;;;;;;26.00;20.00;;;;;9.14;83.53;102015.47;5075848;27;45239;-79
2021/12/12 07:10:50;;;;;;;;;24.75;20.25;;;;;9.21;83.35;102025.97;5074150;28;46064;-79
2021/12/12 07:13:17;;;;;;;;;22.00;21.50;;;;;9.24;82.96;102027.72;5073288;28;45766;-79
2021/12/12 07:15:50;;;;;;;;;26.75;19.25;;;;;9.22;84.13;102025.06;5074288;27;47715;-79
2021/12/12 07:18:19;;;;;;;;;34.50;27.25;;;;;9.22;83.53;102027.72;5074792;28;45503;-79
2021/12/12 07:20:48;;;;;;;;;23.75;20.75;;;;;9.08;83.59;102004.03;5072718;28;46046;-79
2021/12/12 07:23:14;;;;;;;;;31.75;24.50;;;;;9.16;83.82;102022.47;5079697;27;45533;-79
2021/12/12 07:25:42;;;;;;;;;31.25;19.75;;;;;9.21;83.81;102039.19;5073336;27;45597;-78
2021/12/12 07:28:08;;;;;;;;;30.50;26.00;;;;;9.24;84.05;102028.59;5073668;28;47156;-79
2021/12/12 07:30:35;;;;;;;;;27.00;21.25;;;;;9.28;83.88;102037.34;5072103;28;46992;-78
2021/12/12 07:33:03;;;;;;;;;20.50;13.00;;;;;9.21;83.91;102025.97;5073567;27;45318;-78
2021/12/12 07:35:29;;;;;;;;;24.25;21.50;;;;;9.30;83.77;102041.75;5075588;27;45359;-79
2021/12/12 07:37:54;;;;;;;;;33.75;26.25;;;;;9.08;83.49;101997.88;5074389;27;45330;-78
2021/12/12 07:40:20;;;;;;;;;35.75;25.75;;;;;9.32;83.69;102047.91;5088545;27;47452;-78
2021/12/12 07:42:48;;;;;;;;;35.00;25.00;;;;;9.33;84.13;102043.50;5071966;28;45544;-79
2021/12/12 07:45:15;;;;;;;;;32.75;26.00;;;;;9.36;83.99;102045.22;5072715;28;45715;-79
2021/12/12 07:47:42;;;;;;;;;26.00;24.00;;;;;9.34;83.55;102042.59;5073577;27;45325;-78
2021/12/12 07:50:12;;;;;;;;;25.50;24.25;;;;;9.26;84.19;102032.06;5075346;27;45356;-79
2021/12/12 07:52:38;;;;;;;;;32.00;23.50;;;;;9.19;83.92;102018.94;5088959;27;45679;-79
2021/12/12 07:55:06;;;;;;;;;38.50;25.00;;;;;9.37;83.84;102060.19;5073303;27;45572;-78
2021/12/12 07:57:32;;;;;;;;;34.00;26.00;;;;;9.32;84.18;102045.25;5072198;28;45491;-78
2021/12/12 08:00:00;;;;;;;;;33.25;24.50;;;;;9.39;83.71;102055.78;5073357;28;45440;-78
2021/12/12 08:02:26;;;;;;;;;33.75;26.50;;;;;9.29;83.44;102037.34;5075009;27;45461;-78
2021/12/12 08:04:54;;;;;;;;;33.75;24.50;;;;;9.46;83.84;102060.97;5072748;28;45562;-78
2021/12/12 08:07:22;;;;;;;;;29.25;24.75;;;;;9.43;84.12;102055.72;5073078;28;45313;-78
2021/12/12 08:09:49;;;;;;;;;25.00;25.00;;;;;9.42;84.17;102061.91;5072433;28;46022;-79
2021/12/12 08:12:18;;;;;;;;;26.50;24.50;;;;;9.44;84.19;102065.41;5072889;27;45861;-78
2021/12/12 08:14:44;;;;;;;;;35.00;31.25;;;;;9.01;84.46;101998.84;5072681;27;45581;-81
2021/12/12 08:17:12;;;;;;;;;26.00;18.75;;;;;9.44;84.29;102069.81;5067720;27;45474;-79
2021/12/12 08:19:38;;;;;;;;;28.25;24.25;;;;;9.48;84.39;102075.06;5069599;28;45506;-76
2021/12/12 08:22:08;;;;;;;;;34.75;24.75;;;;;9.49;84.35;102079.44;5072657;28;45512;-77
2021/12/12 08:24:37;;;;;;;;;34.25;30.50;;;;;9.32;84.29;102052.28;5083730;27;45469;-77
2021/12/12 08:27:07;;;;;;;;;41.50;29.00;;;;;9.52;84.62;102087.34;5072291;28;45533;-79
2021/12/12 08:29:35;;;;;;;;;35.50;30.50;;;;;9.52;84.72;102090.00;5073937;27;45561;-79
2021/12/12 08:32:08;;;;;;;;;30.25;27.25;;;;;9.52;84.62;102092.63;5074108;28;45641;-77
2021/12/12 08:34:34;;;;;;;;;32.75;27.00;;;;;9.54;84.47;102087.34;5072711;28;45426;-77
2021/12/12 08:37:00;;;;;;;;;37.25;27.25;;;;;9.58;84.91;102089.06;5072694;27;45470;-79
2021/12/12 08:39:29;;;;;;;;;37.50;30.75;;;;;9.59;84.65;102088.19;5074613;27;46102;-80
2021/12/12 08:41:58;;;;;;;;;27.25;22.25;;;;;9.52;84.90;102078.53;5055892;28;48991;-84
2021/12/12 08:44:24;;;;;;;;;39.50;28.50;;;;;9.58;84.39;102085.56;5075154;28;45560;-81
2021/12/12 08:46:54;;;;;;;;;34.50;25.50;;;;;9.48;84.80;102074.19;5072941;28;45544;-83
2021/12/12 08:49:23;;;;;;;;;35.75;29.75;;;;;9.48;84.89;102083.00;5072342;27;45361;-81
2021/12/12 08:51:54;;;;;;;;;41.75;33.00;;;;;9.54;84.81;102090.00;5071159;28;45314;-79
2021/12/12 08:54:27;;;;;;;;;26.50;26.25;;;;;9.49;85.49;102084.72;5072966;27;45744;-80
2021/12/12 08:57:04;;;;;;;;;39.00;28.75;;;;;9.60;85.30;102099.63;5073321;27;45474;-79
2021/12/12 08:59:36;;;;;;;;;28.00;23.25;;;;;9.64;84.58;102101.34;5070603;28;49656;-80
2021/12/12 09:02:08;;;;;;;;;42.50;29.25;;;;;9.64;85.20;102109.28;5074395;27;45407;-81
2021/12/12 09:04:45;;;;;;;;;39.75;31.00;;;;;9.63;85.53;102102.25;5071079;28;45316;-80
2021/12/12 09:07:20;;;;;;;;;37.25;30.50;;;;;9.59;85.17;102095.22;5072014;27;45613;-78
2021/12/12 09:09:52;;;;;;;;;37.00;31.50;;;;;9.65;85.69;102108.41;5073415;27;45489;-81
2021/12/12 09:12:26;;;;;;;;;35.00;28.00;;;;;9.70;85.08;102118.03;5072220;28;45591;-78
2021/12/12 09:15:21;;;;;;;;;41.75;36.00;;;;;9.65;85.29;102100.47;5087907;27;45459;-78
2021/12/12 09:17:53;;;;;;;;;35.25;28.25;;;;;9.65;85.23;102098.72;5068329;27;45450;-78
2021/12/12 09:21:10;;;;;;;;;38.25;30.00;;;;;9.77;85.13;102116.22;5074536;27;46399;-77
2021/12/12 09:24:01;;;;;;;;;37.25;35.00;;;;;9.70;85.33;102096.88;5068871;28;45628;-78
2021/12/12 09:26:27;;;;;;;;;39.50;34.25;;;;;9.68;85.54;102095.16;5077807;27;45484;-78
2021/12/12 09:29:06;;;;;;;;;38.00;32.75;;;;;9.86;84.98;102124.06;5076566;28;45253;-78
2021/12/12 09:31:38;;;;;;;;;42.50;34.75;;;;;9.62;85.33;102084.63;5081505;27;47103;-78
2021/12/12 09:34:32;;;;;;;;;36.00;30.50;;;;;9.93;85.48;102131.03;5075785;27;45384;-78
2021/12/12 09:37:05;;;;;;;;;42.00;32.25;;;;;9.97;85.03;102135.44;5074011;28;45484;-79
2021/12/12 09:39:58;;;;;;;;;39.75;31.25;;;;;9.96;85.23;102124.84;5074301;28;45434;-80
2021/12/12 09:42:47;;;;;;;;;39.25;33.00;;;;;9.99;85.08;102130.13;5075006;27;45371;-79
2021/12/12 09:45:35;;;;;;;;;34.50;28.75;;;;;10.02;85.12;102130.97;5094341;27;45838;-79
2021/12/12 09:48:26;;;;;;;;;38.00;29.75;;;;;10.04;85.67;102138.03;5060400;28;45444;-78
2021/12/12 09:51:17;;;;;;;;;37.00;32.25;;;;;10.08;85.46;102135.31;5075076;28;45620;-78
2021/12/12 09:54:05;;;;;;;;;28.50;28.50;;;;;9.98;85.12;102112.50;5073700;27;46092;-78
2021/12/12 09:56:51;;;;;;;;;35.00;31.25;;;;;10.13;85.49;102133.50;5072337;28;45959;-79
2021/12/12 09:59:31;;;;;;;;;34.25;28.00;;;;;10.19;85.50;102137.88;5077363;28;45449;-79
2021/12/12 10:02:16;;;;;;;;;38.75;27.00;;;;;10.23;85.18;102147.50;5073850;28;45554;-79
2021/12/12 10:05:01;;;;;;;;;28.25;25.75;;;;;10.15;85.28;102128.22;5074568;28;45625;-79
2021/12/12 10:08:01;;;;;;;;;32.50;25.25;;;;;10.33;85.21;102151.84;5081629;27;45617;-78
2021/12/12 10:10:51;;;;;;;;;28.00;24.25;;;;;10.33;85.45;102151.84;5075278;28;45457;-79
2021/12/12 10:13:30;;;;;;;;;26.00;24.25;;;;;10.31;85.74;102139.53;5074000;27;45749;-79
2021/12/12 10:16:01;;;;;;;;;29.25;25.75;;;;;10.29;85.25;102134.25;5074735;28;45275;-79
2021/12/12 10:18:43;;;;;;;;;27.75;21.25;;;;;10.26;85.49;102136.03;5091020;27;46067;-80
2021/12/12 10:21:19;;;;;;;;;16.25;13.50;;;;;10.28;86.00;102131.63;5091844;27;45475;-80
2021/12/12 10:23:58;;;;;;;;;21.50;20.25;;;;;10.40;85.53;102153.53;5074759;27;45385;-80
2021/12/12 10:26:44;;;;;;;;;27.75;26.00;;;;;10.34;86.18;102140.38;5072719;28;45564;-78
2021/12/12 10:29:20;;;;;;;;;30.50;25.75;;;;;10.47;85.77;102154.38;5077084;27;45512;-78
2021/12/12 10:31:52;;;;;;;;;24.50;22.00;;;;;10.49;85.56;102162.28;5074872;28;45272;-79
2021/12/12 10:34:25;;;;;;;;;24.75;22.25;;;;;10.48;85.49;102155.25;5076308;27;45374;-78
2021/12/12 10:37:04;;;;;;;;;23.75;22.25;;;;;10.43;85.45;102148.19;5074322;28;46126;-78
2021/12/12 10:39:36;;;;;;;;;32.75;25.50;;;;;10.49;85.99;102160.50;5073374;28;45547;-78
2021/12/12 10:42:10;;;;;;;;;27.75;23.50;;;;;10.51;85.86;102160.50;5074941;28;47972;-79
2021/12/12 10:44:43;;;;;;;;;26.75;22.75;;;;;10.55;86.08;102164.84;5089343;27;45373;-79
2021/12/12 10:47:17;;;;;;;;;29.50;26.50;;;;;10.55;85.99;102159.56;5074706;28;46207;-81
2021/12/12 10:50:00;;;;;;;;;22.25;18.00;;;;;10.61;86.06;102156.81;5078686;27;45506;-80
2021/12/12 10:52:38;;;;;;;;;25.50;24.00;;;;;10.55;85.49;102149.84;5077752;27;45475;-82
2021/12/12 10:55:13;;;;;;;;;28.25;23.50;;;;;10.50;85.89;102137.53;5074155;28;45556;-79
2021/12/12 10:57:42;;;;;;;;;29.25;23.75;;;;;10.60;86.18;102168.31;5074240;28;45533;-78
2021/12/12 11:00:16;;;;;;;;;23.75;22.50;;;;;10.61;86.22;102167.41;5073255;28;45699;-80
2021/12/12 11:02:47;;;;;;;;;30.75;26.50;;;;;10.41;86.38;102131.50;5077857;27;45450;-79
2021/12/12 11:05:21;;;;;;;;;29.25;24.25;;;;;10.51;86.28;102149.91;5075979;27;45533;-81
2021/12/12 11:07:58;;;;;;;;;32.75;27.75;;;;;10.41;86.38;102128.84;5073528;27;46387;-80
2021/12/12 11:10:28;;;;;;;;;27.00;22.50;;;;;10.66;86.67;102174.41;5072444;28;46218;-80
2021/12/12 11:13:09;;;;;;;;;23.75;22.00;;;;;10.63;87.05;102157.69;5074241;27;45472;-80
2021/12/12 11:15:55;;;;;;;;;31.00;27.00;;;;;10.53;86.56;102137.50;5074144;28;45300;-80
2021/12/12 11:18:55;;;;;;;;;16.00;15.25;;;;;10.63;86.60;102158.56;5071819;28;46016;-79
2021/12/12 11:21:34;;;;;;;;;31.50;28.50;;;;;10.67;87.21;102157.63;5058008;28;45347;-79
2021/12/12 11:24:15;;;;;;;;;23.00;21.25;;;;;10.67;87.37;102154.09;5058690;28;45452;-80
2021/12/12 11:26:47;;;;;;;;;28.50;26.00;;;;;10.74;87.42;102169.03;5074374;27;45338;-81
2021/12/12 11:29:16;;;;;;;;;24.00;20.00;;;;;10.76;87.03;102167.22;5076474;27;45344;-81
2021/12/12 11:31:50;;;;;;;;;32.50;22.75;;;;;10.80;86.94;102168.97;5102096;27;45437;-81
2021/12/12 11:34:15;;;;;;;;;28.50;24.75;;;;;10.62;87.07;102137.44;5073746;28;47376;-81
2021/12/12 11:37:07;;;;;;;;;34.75;27.75;;;;;10.88;86.72;102177.69;5073745;28;45461;-81
2021/12/12 11:39:43;;;;;;;;;31.50;25.75;;;;;10.89;86.87;102168.84;5087707;27;48213;-80
2021/12/12 11:42:19;;;;;;;;;24.75;24.00;;;;;10.87;87.07;102160.03;5073556;28;45375;-80
2021/12/12 11:45:03;;;;;;;;;28.50;26.00;;;;;10.99;86.70;102164.28;5071651;28;45608;-80
2021/12/12 11:47:43;;;;;;;;;23.75;22.00;;;;;11.03;86.20;102176.63;5086368;27;45365;-80
2021/12/12 11:50:21;;;;;;;;;29.25;28.00;;;;;11.04;86.99;102172.19;5073691;28;45927;-81
2021/12/12 11:52:58;;;;;;;;;32.75;29.25;;;;;11.08;86.55;102181.84;5072081;28;45583;-80
2021/12/12 11:55:26;;;;;;;;;36.00;29.50;;;;;11.12;86.80;102186.22;5073131;28;45489;-81